KPRO/PRO METAR and TAF weather

Enter ICAO airport designator
Station Type Date Time Source
KPRO METAR 2024/02/26 17:55 UTC NOAA

KPRO 261755Z AUTO 20019G25KT 10SM CLR 22/00 A2950 RMK AO2 T02241005 10224 21004


Station Type Date Time Source
KPRO Decoded METAR 2024/02/26 17:55 UTC NOAA

Station name not available
Feb 26, 2024 - 12:55 PM EST / 2024.02.26 1755 UTC
Wind: from the SSW (200 degrees) at 22 MPH (19 KT) gusting to 29 MPH (25 KT):0
Visibility: 10 mile(s):0
Sky conditions: clear
Temperature: 72.3 F (22.4 C)
Dew Point: 31.1 F (-0.5 C)
Relative Humidity: 21%
Pressure (altimeter): 29.5 in. Hg (998 hPa)
ob: KPRO 261755Z AUTO 20019G25KT 10SM CLR 22/00 A2950 RMK AO2 T02241005 10224 21004
cycle: 18

Station Type Date Time Source
KPRO TAF UTC NOAA

Error!

Example: see airport list